createdAt,value
2016-10-08T00:00:24.758Z,0
2016-10-08T00:01:24.696Z,0
2016-10-08T00:02:24.720Z,0
2016-10-08T00:03:24.849Z,0
2016-10-08T00:04:25.396Z,0
2016-10-08T00:05:25.096Z,0
2016-10-08T00:06:24.941Z,0
2016-10-08T00:07:24.868Z,0
2016-10-08T00:08:25.157Z,0
2016-10-08T00:09:25.006Z,0
2016-10-08T00:10:24.663Z,0
2016-10-08T00:11:25.542Z,0
2016-10-08T00:12:24.617Z,0
2016-10-08T00:13:24.697Z,0
2016-10-08T00:14:25.089Z,0
2016-10-08T00:15:25.303Z,0
2016-10-08T00:16:24.816Z,0
2016-10-08T00:17:25.446Z,0
2016-10-08T00:18:25.517Z,0
2016-10-08T00:19:25.430Z,0
2016-10-08T00:20:25.204Z,0
2016-10-08T00:21:25.432Z,0
2016-10-08T00:22:24.901Z,0
2016-10-08T00:23:25.254Z,0
2016-10-08T00:24:25.165Z,0
2016-10-08T00:25:25.187Z,0
2016-10-08T00:26:25.324Z,0
2016-10-08T00:27:25.230Z,0
2016-10-08T00:28:25.889Z,0
2016-10-08T00:29:25.068Z,0
2016-10-08T00:30:25.685Z,0
2016-10-08T00:31:25.361Z,0
2016-10-08T00:32:25.458Z,0
2016-10-08T00:33:25.665Z,0
2016-10-08T00:34:25.164Z,0
2016-10-08T00:35:25.392Z,0
2016-10-08T00:36:25.411Z,0
2016-10-08T00:37:25.745Z,0
2016-10-08T00:38:25.870Z,0
2016-10-08T00:39:25.788Z,0
2016-10-08T00:40:25.927Z,0
2016-10-08T00:41:25.550Z,0
2016-10-08T00:42:25.909Z,0
2016-10-08T00:43:25.870Z,0
2016-10-08T00:44:25.659Z,0
2016-10-08T00:45:25.908Z,0
2016-10-08T00:46:26.019Z,0
2016-10-08T00:47:25.317Z,0
2016-10-08T00:48:25.662Z,0
2016-10-08T00:49:25.360Z,0
2016-10-08T00:50:26.137Z,0
2016-10-08T00:51:26.034Z,0
2016-10-08T00:52:26.367Z,0
2016-10-08T00:53:26.160Z,0
2016-10-08T00:54:25.776Z,0
2016-10-08T00:55:25.812Z,0
2016-10-08T00:56:25.824Z,0
2016-10-08T00:57:25.835Z,0
2016-10-08T00:58:25.859Z,0
2016-10-08T00:59:25.875Z,0
2016-10-08T01:00:26.216Z,0
2016-10-08T01:01:25.923Z,0
2016-10-08T01:02:26.279Z,0
2016-10-08T01:03:26.270Z,0
2016-10-08T01:04:26.296Z,0
2016-10-08T01:05:26.001Z,0
2016-10-08T01:06:26.017Z,0
2016-10-08T01:07:26.356Z,0
2016-10-08T01:08:26.057Z,0
2016-10-08T01:09:26.403Z,0
2016-10-08T01:10:25.804Z,0
2016-10-08T01:11:26.124Z,0
2016-10-08T01:12:25.825Z,0
2016-10-08T01:13:26.820Z,0
2016-10-08T01:14:26.494Z,0
2016-10-08T01:15:25.892Z,0
2016-10-08T01:16:26.851Z,0
2016-10-08T01:17:26.242Z,0
2016-10-08T01:18:26.580Z,0
2016-10-08T01:19:26.281Z,0
2016-10-08T01:20:26.305Z,0
2016-10-08T01:21:26.321Z,0
2016-10-08T01:22:26.659Z,0
2016-10-08T01:23:26.678Z,0
2016-10-08T01:24:27.017Z,0
2016-10-08T01:25:26.088Z,0
2016-10-08T01:26:26.444Z,0
2016-10-08T01:27:26.759Z,0
2016-10-08T01:28:26.470Z,0
2016-10-08T01:29:26.479Z,0
2016-10-08T01:30:26.822Z,0
2016-10-08T01:31:26.526Z,0
2016-10-08T01:32:26.860Z,0
2016-10-08T01:33:27.198Z,0
2016-10-08T01:34:26.599Z,0
2016-10-08T01:35:26.606Z,0
2016-10-08T01:36:26.943Z,0
2016-10-08T01:37:26.659Z,0
2016-10-08T01:38:26.677Z,0
2016-10-08T01:39:26.372Z,0
2016-10-08T01:40:27.042Z,0
2016-10-08T01:41:26.729Z,0
2016-10-08T01:42:27.065Z,0
2016-10-08T01:43:26.461Z,0
2016-10-08T01:44:26.787Z,0
2016-10-08T01:45:26.806Z,0
2016-10-08T01:46:27.141Z,0
2016-10-08T01:47:27.169Z,0
2016-10-08T01:48:26.871Z,0
2016-10-08T01:49:27.516Z,0
2016-10-08T01:50:27.222Z,0
2016-10-08T01:51:27.239Z,0
2016-10-08T01:52:27.260Z,0
2016-10-08T01:53:26.970Z,0
2016-10-08T01:54:27.311Z,0
2016-10-08T01:55:27.147Z,0
2016-10-08T01:56:27.356Z,0
2016-10-08T01:57:27.047Z,0
2016-10-08T01:58:27.071Z,0
2016-10-08T01:59:27.084Z,0
2016-10-08T02:00:27.110Z,0
2016-10-08T02:01:27.757Z,0
2016-10-08T02:02:27.145Z,0
2016-10-08T02:03:27.480Z,0
2016-10-08T02:04:27.184Z,0
2016-10-08T02:05:27.537Z,0
2016-10-08T02:06:27.228Z,0
2016-10-08T02:07:27.563Z,0
2016-10-08T02:08:26.949Z,0
2016-10-08T02:09:26.970Z,0
2016-10-08T02:10:27.317Z,0
2016-10-08T02:11:27.330Z,0
2016-10-08T02:12:27.345Z,0
2016-10-08T02:13:27.682Z,0
2016-10-08T02:14:27.703Z,0
2016-10-08T02:15:27.097Z,0
2016-10-08T02:16:28.052Z,0
2016-10-08T02:17:27.446Z,0
2016-10-08T02:18:27.788Z,0
2016-10-08T02:19:27.502Z,0
2016-10-08T02:20:27.823Z,0
2016-10-08T02:21:28.171Z,0
2016-10-08T02:22:27.543Z,0
2016-10-08T02:23:27.883Z,0
2016-10-08T02:24:27.587Z,0
2016-10-08T02:25:27.922Z,0
2016-10-08T02:26:27.651Z,0
2016-10-08T02:27:27.976Z,0
2016-10-08T02:28:27.353Z,0
2016-10-08T02:29:27.688Z,0
2016-10-08T02:30:28.031Z,0
2016-10-08T02:31:27.737Z,0
2016-10-08T02:32:27.429Z,0
2016-10-08T02:33:28.086Z,0
2016-10-08T02:34:28.134Z,0
2016-10-08T02:35:28.121Z,0
2016-10-08T02:36:28.139Z,0
2016-10-08T02:37:28.163Z,0
2016-10-08T02:38:27.873Z,0
2016-10-08T02:39:27.576Z,0
2016-10-08T02:40:28.566Z,0
2016-10-08T02:41:28.561Z,0
2016-10-08T02:42:27.953Z,0
2016-10-08T02:43:28.283Z,0
2016-10-08T02:44:28.307Z,0
2016-10-08T02:45:28.326Z,0
2016-10-08T02:46:28.030Z,0
2016-10-08T02:47:28.369Z,0
2016-10-08T02:48:28.066Z,0
2016-10-08T02:49:27.777Z,0
2016-10-08T02:50:28.105Z,0
2016-10-08T02:51:28.442Z,0
2016-10-08T02:52:28.142Z,0
2016-10-08T02:53:27.851Z,0
2016-10-08T02:54:28.510Z,0
2016-10-08T02:55:28.522Z,0
2016-10-08T02:56:28.226Z,0
2016-10-08T02:57:27.931Z,0
2016-10-08T02:58:28.577Z,0
2016-10-08T02:59:28.604Z,0
2016-10-08T03:00:28.301Z,0
2016-10-08T03:01:28.325Z,0
2016-10-08T03:02:28.348Z,0
2016-10-08T03:03:28.680Z,0
2016-10-08T03:04:29.012Z,0
2016-10-08T03:05:29.036Z,0
2016-10-08T03:06:28.744Z,0
2016-10-08T03:07:28.445Z,0
2016-10-08T03:08:28.490Z,0
2016-10-08T03:09:28.166Z,0
2016-10-08T03:10:28.823Z,0
2016-10-08T03:11:28.323Z,0
2016-10-08T03:12:28.857Z,0
2016-10-08T03:13:28.873Z,0
2016-10-08T03:14:28.908Z,0
2016-10-08T03:15:28.604Z,0
2016-10-08T03:16:28.623Z,0
2016-10-08T03:17:28.639Z,0
2016-10-08T03:18:28.977Z,0
2016-10-08T03:19:29.031Z,0
2016-10-08T03:20:28.701Z,0
2016-10-08T03:21:28.721Z,0
2016-10-08T03:22:28.743Z,0
2016-10-08T03:23:29.084Z,0
2016-10-08T03:24:28.790Z,0
2016-10-08T03:25:28.488Z,0
2016-10-08T03:26:28.842Z,0
2016-10-08T03:27:28.843Z,0
2016-10-08T03:28:29.179Z,0
2016-10-08T03:29:28.955Z,0
2016-10-08T03:30:28.583Z,0
2016-10-08T03:31:28.926Z,0
2016-10-08T03:32:28.946Z,0
2016-10-08T03:33:28.959Z,0
2016-10-08T03:34:28.670Z,0
2016-10-08T03:35:29.001Z,0
2016-10-08T03:36:29.332Z,0
2016-10-08T03:37:29.040Z,0
2016-10-08T03:38:29.379Z,0
2016-10-08T03:39:29.400Z,0
2016-10-08T03:40:29.114Z,0
2016-10-08T03:41:29.123Z,0
2016-10-08T03:42:29.136Z,0
2016-10-08T03:43:29.156Z,0
2016-10-08T03:44:29.491Z,0
2016-10-08T03:45:28.879Z,0
2016-10-08T03:46:29.548Z,0
2016-10-08T03:47:29.240Z,0
2016-10-08T03:48:29.580Z,0
2016-10-08T03:49:29.590Z,0
2016-10-08T03:50:29.615Z,0
2016-10-08T03:51:29.630Z,0
2016-10-08T03:52:29.339Z,0
2016-10-08T03:53:29.668Z,0
2016-10-08T03:54:29.372Z,0
2016-10-08T03:55:29.708Z,0
2016-10-08T03:56:29.409Z,0
2016-10-08T03:57:30.068Z,0
2016-10-08T03:58:29.499Z,0
2016-10-08T03:59:29.475Z,0
2016-10-08T04:00:29.810Z,0
2016-10-08T04:01:29.196Z,0
2016-10-08T04:02:29.847Z,0
2016-10-08T04:03:29.554Z,0
2016-10-08T04:04:29.260Z,0
2016-10-08T04:05:29.611Z,0
2016-10-08T04:06:29.940Z,0
2016-10-08T04:07:29.950Z,0
2016-10-08T04:08:30.284Z,0
2016-10-08T04:09:29.673Z,0
2016-10-08T04:10:29.694Z,0
2016-10-08T04:11:29.711Z,0
2016-10-08T04:12:30.044Z,0
2016-10-08T04:13:29.766Z,0
2016-10-08T04:14:29.460Z,0
2016-10-08T04:15:29.481Z,0
2016-10-08T04:16:30.124Z,0
2016-10-08T04:17:29.843Z,0
2016-10-08T04:18:29.847Z,0
2016-10-08T04:19:30.198Z,0
2016-10-08T04:20:30.212Z,0
2016-10-08T04:21:30.232Z,0
2016-10-08T04:22:30.242Z,0
2016-10-08T04:23:29.949Z,0
2016-10-08T04:24:30.599Z,0
2016-10-08T04:25:29.672Z,0
2016-10-08T04:26:30.662Z,0
2016-10-08T04:27:30.364Z,0
2016-10-08T04:28:30.053Z,0
2016-10-08T04:29:30.383Z,0
2016-10-08T04:30:30.729Z,0
2016-10-08T04:31:30.108Z,0
2016-10-08T04:32:30.437Z,0
2016-10-08T04:33:30.459Z,0
2016-10-08T04:34:29.846Z,0
2016-10-08T04:35:30.520Z,0
2016-10-08T04:36:30.513Z,0
2016-10-08T04:37:30.533Z,0
2016-10-08T04:38:30.882Z,0
2016-10-08T04:39:29.940Z,0
2016-10-08T04:40:30.614Z,0
2016-10-08T04:41:30.297Z,0
2016-10-08T04:42:30.644Z,0
2016-10-08T04:43:30.652Z,0
2016-10-08T04:44:30.361Z,0
2016-10-08T04:45:30.693Z,0
2016-10-08T04:46:30.718Z,0
2016-10-08T04:47:30.425Z,0
2016-10-08T04:48:30.750Z,0
2016-10-08T04:49:30.469Z,0
2016-10-08T04:50:31.113Z,0
2016-10-08T04:51:30.810Z,0
2016-10-08T04:52:31.165Z,0
2016-10-08T04:53:30.850Z,0
2016-10-08T04:54:30.241Z,0
2016-10-08T04:55:30.572Z,0
2016-10-08T04:56:30.917Z,0
2016-10-08T04:57:30.301Z,0
2016-10-08T04:58:30.636Z,0
2016-10-08T04:59:30.654Z,0
2016-10-08T05:00:30.380Z,0
2016-10-08T05:01:30.690Z,0
2016-10-08T05:02:30.408Z,0
2016-10-08T05:03:31.049Z,0
2016-10-08T05:04:30.439Z,0
2016-10-08T05:05:31.404Z,0
2016-10-08T05:06:30.795Z,0
2016-10-08T05:07:30.519Z,0
2016-10-08T05:08:30.536Z,0
2016-10-08T05:09:31.173Z,0
2016-10-08T05:10:31.507Z,0
2016-10-08T05:11:30.897Z,0
2016-10-08T05:12:31.556Z,0
2016-10-08T05:13:31.252Z,0
2016-10-08T05:14:30.955Z,0
2016-10-08T05:15:31.288Z,0
2016-10-08T05:16:30.989Z,0
2016-10-08T05:17:31.014Z,0
2016-10-08T05:18:31.030Z,0
2016-10-08T05:19:30.740Z,0
2016-10-08T05:20:31.705Z,0
2016-10-08T05:21:30.791Z,0
2016-10-08T05:22:31.426Z,0
2016-10-08T05:23:31.447Z,4
2016-10-08T05:24:31.779Z,4
2016-10-08T05:25:31.183Z,4
2016-10-08T05:26:31.510Z,0
2016-10-08T05:27:31.220Z,0
2016-10-08T05:28:31.230Z,0
2016-10-08T05:29:31.563Z,0
2016-10-08T05:30:31.266Z,0
2016-10-08T05:31:31.291Z,0
2016-10-08T05:32:31.327Z,0
2016-10-08T05:33:31.341Z,0
2016-10-08T05:34:31.663Z,0
2016-10-08T05:35:31.705Z,4
2016-10-08T05:36:31.391Z,4
2016-10-08T05:37:31.096Z,4
2016-10-08T05:38:31.431Z,4
2016-10-08T05:39:31.765Z,0
2016-10-08T05:40:31.471Z,4
2016-10-08T05:41:31.178Z,4
2016-10-08T05:42:31.505Z,4
2016-10-08T05:43:31.863Z,4
2016-10-08T05:44:31.547Z,4
2016-10-08T05:45:31.580Z,4
2016-10-08T05:46:31.271Z,4
2016-10-08T05:47:31.607Z,4
2016-10-08T05:48:31.627Z,8
2016-10-08T05:49:31.647Z,4
2016-10-08T05:50:31.988Z,8
2016-10-08T05:51:31.368Z,4
2016-10-08T05:52:32.029Z,8
2016-10-08T05:53:31.418Z,8
2016-10-08T05:54:31.740Z,4
2016-10-08T05:55:32.081Z,12
2016-10-08T05:56:31.469Z,8
2016-10-08T05:57:31.805Z,8
2016-10-08T05:58:31.506Z,12
2016-10-08T05:59:31.528Z,8
2016-10-08T06:00:31.868Z,12
2016-10-08T06:01:31.891Z,12
2016-10-08T06:02:31.902Z,12
2016-10-08T06:03:31.923Z,12
2016-10-08T06:04:31.624Z,12
2016-10-08T06:05:31.966Z,16
2016-10-08T06:06:32.298Z,12
2016-10-08T06:07:32.314Z,12
2016-10-08T06:08:32.016Z,16
2016-10-08T06:09:32.042Z,16
2016-10-08T06:10:32.056Z,16
2016-10-08T06:11:32.710Z,16
2016-10-08T06:12:32.417Z,16
2016-10-08T06:13:32.437Z,16
2016-10-08T06:14:32.447Z,16
2016-10-08T06:15:32.157Z,20
2016-10-08T06:16:31.881Z,16
2016-10-08T06:17:32.513Z,20
2016-10-08T06:18:32.845Z,16
2016-10-08T06:19:32.553Z,20
2016-10-08T06:20:32.574Z,20
2016-10-08T06:21:32.292Z,20
2016-10-08T06:22:32.926Z,20
2016-10-08T06:23:32.311Z,16
2016-10-08T06:24:32.651Z,16
2016-10-08T06:25:32.669Z,20
2016-10-08T06:26:32.687Z,20
2016-10-08T06:27:32.719Z,24
2016-10-08T06:28:32.729Z,20
2016-10-08T06:29:32.746Z,24
2016-10-08T06:30:32.458Z,24
2016-10-08T06:31:32.789Z,28
2016-10-08T06:32:32.802Z,28
2016-10-08T06:33:32.826Z,32
2016-10-08T06:34:32.851Z,28
2016-10-08T06:35:32.247Z,28
2016-10-08T06:36:32.881Z,32
2016-10-08T06:37:32.590Z,32
2016-10-08T06:38:32.614Z,32
2016-10-08T06:39:32.628Z,32
2016-10-08T06:40:32.665Z,36
2016-10-08T06:41:32.686Z,40
2016-10-08T06:42:33.004Z,40
2016-10-08T06:43:32.719Z,40
2016-10-08T06:44:33.043Z,40
2016-10-08T06:45:33.059Z,36
2016-10-08T06:46:32.458Z,40
2016-10-08T06:47:33.105Z,40
2016-10-08T06:48:32.490Z,44
2016-10-08T06:49:32.826Z,44
2016-10-08T06:50:32.846Z,44
2016-10-08T06:51:33.178Z,44
2016-10-08T06:52:32.883Z,48
2016-10-08T06:53:32.587Z,48
2016-10-08T06:54:32.936Z,44
2016-10-08T06:55:33.256Z,48
2016-10-08T06:56:33.287Z,44
2016-10-08T06:57:32.979Z,44
2016-10-08T06:58:32.684Z,48
2016-10-08T06:59:33.342Z,44
2016-10-08T07:00:33.033Z,44
2016-10-08T07:01:33.382Z,44
2016-10-08T07:02:33.091Z,44
2016-10-08T07:03:33.414Z,48
2016-10-08T07:04:32.797Z,44
2016-10-08T07:05:33.136Z,48
2016-10-08T07:06:33.169Z,48
2016-10-08T07:07:33.176Z,48
2016-10-08T07:08:33.204Z,48
2016-10-08T07:09:33.540Z,56
2016-10-08T07:10:33.233Z,56
2016-10-08T07:11:32.943Z,56
2016-10-08T07:12:33.589Z,56
2016-10-08T07:13:33.293Z,52
2016-10-08T07:14:33.947Z,48
2016-10-08T07:15:33.644Z,52
2016-10-08T07:16:33.665Z,48
2016-10-08T07:17:33.687Z,52
2016-10-08T07:18:33.075Z,52
2016-10-08T07:19:33.738Z,52
2016-10-08T07:20:33.742Z,56
2016-10-08T07:21:33.448Z,56
2016-10-08T07:22:33.787Z,56
2016-10-08T07:23:33.487Z,56
2016-10-08T07:24:33.824Z,60
2016-10-08T07:25:33.841Z,60
2016-10-08T07:26:33.544Z,64
2016-10-08T07:27:33.883Z,60
2016-10-08T07:28:33.901Z,64
2016-10-08T07:29:33.606Z,64
2016-10-08T07:30:33.955Z,64
2016-10-08T07:31:33.958Z,60
2016-10-08T07:32:34.292Z,60
2016-10-08T07:33:33.682Z,60
2016-10-08T07:34:34.332Z,56
2016-10-08T07:35:33.719Z,56
2016-10-08T07:36:33.742Z,60
2016-10-08T07:37:34.071Z,60
2016-10-08T07:38:34.094Z,60
2016-10-08T07:39:33.797Z,60
2016-10-08T07:40:34.133Z,64
2016-10-08T07:41:33.862Z,68
2016-10-08T07:42:33.855Z,72
2016-10-08T07:43:33.909Z,72
2016-10-08T07:44:34.225Z,76
2016-10-08T07:45:33.615Z,76
2016-10-08T07:46:33.936Z,76
2016-10-08T07:47:33.954Z,76
2016-10-08T07:48:34.604Z,76
2016-10-08T07:49:33.993Z,76
2016-10-08T07:50:34.025Z,68
2016-10-08T07:51:34.381Z,64
2016-10-08T07:52:34.046Z,60
2016-10-08T07:53:34.070Z,56
2016-10-08T07:54:34.401Z,56
2016-10-08T07:55:34.425Z,60
2016-10-08T07:56:34.140Z,64
2016-10-08T07:57:34.146Z,68
2016-10-08T07:58:33.861Z,68
2016-10-08T07:59:34.824Z,68
2016-10-08T08:00:34.525Z,72
2016-10-08T08:01:34.231Z,72
2016-10-08T08:02:34.585Z,68
2016-10-08T08:03:34.281Z,60
2016-10-08T08:04:34.312Z,60
2016-10-08T08:05:34.314Z,56
2016-10-08T08:06:34.031Z,56
2016-10-08T08:07:34.660Z,56
2016-10-08T08:08:34.051Z,64
2016-10-08T08:09:34.068Z,64
2016-10-08T08:10:35.034Z,64
2016-10-08T08:11:34.430Z,64
2016-10-08T08:12:35.075Z,68
2016-10-08T08:13:34.467Z,68
2016-10-08T08:14:34.816Z,68
2016-10-08T08:15:34.501Z,68
2016-10-08T08:16:34.213Z,72
2016-10-08T08:17:34.225Z,72
2016-10-08T08:18:34.885Z,72
2016-10-08T08:19:34.893Z,72
2016-10-08T08:20:34.930Z,76
2016-10-08T08:21:34.623Z,76
2016-10-08T08:22:34.953Z,76
2016-10-08T08:23:34.658Z,76
2016-10-08T08:24:34.674Z,80
2016-10-08T08:25:34.387Z,84
2016-10-08T08:26:35.029Z,84
2016-10-08T08:27:34.733Z,88
2016-10-08T08:28:34.750Z,92
2016-10-08T08:29:35.094Z,96
2016-10-08T08:30:35.432Z,100
2016-10-08T08:31:34.500Z,96
2016-10-08T08:32:35.152Z,96
2016-10-08T08:33:34.881Z,96
2016-10-08T08:34:35.202Z,96
2016-10-08T08:35:34.892Z,96
2016-10-08T08:36:35.541Z,100
2016-10-08T08:37:34.928Z,100
2016-10-08T08:38:35.267Z,104
2016-10-08T08:39:35.287Z,112
2016-10-08T08:40:35.304Z,116
2016-10-08T08:41:35.011Z,120
2016-10-08T08:42:35.028Z,124
2016-10-08T08:43:35.045Z,132
2016-10-08T08:44:35.071Z,136
2016-10-08T08:45:35.410Z,136
2016-10-08T08:46:35.421Z,140
2016-10-08T08:47:35.155Z,136
2016-10-08T08:48:35.144Z,136
2016-10-08T08:49:35.161Z,136
2016-10-08T08:50:35.506Z,140
2016-10-08T08:51:35.224Z,140
2016-10-08T08:52:35.241Z,148
2016-10-08T08:53:35.559Z,148
2016-10-08T08:54:35.582Z,148
2016-10-08T08:55:35.386Z,144
2016-10-08T08:56:35.644Z,140
2016-10-08T08:57:35.646Z,140
2016-10-08T08:58:35.979Z,136
2016-10-08T08:59:35.385Z,136
2016-10-08T09:00:35.384Z,132
2016-10-08T09:01:35.407Z,140
2016-10-08T09:02:35.106Z,140
2016-10-08T09:03:35.450Z,148
2016-10-08T09:04:35.472Z,156
2016-10-08T09:05:35.797Z,176
2016-10-08T09:06:35.199Z,188
2016-10-08T09:07:35.838Z,204
2016-10-08T09:08:36.179Z,220
2016-10-08T09:09:35.875Z,244
2016-10-08T09:10:35.264Z,252
2016-10-08T09:11:35.289Z,248
2016-10-08T09:12:35.942Z,240
2016-10-08T09:13:35.325Z,216
2016-10-08T09:14:35.989Z,196
2016-10-08T09:15:35.370Z,184
2016-10-08T09:16:36.020Z,180
2016-10-08T09:17:35.721Z,196
2016-10-08T09:18:35.749Z,212
2016-10-08T09:19:36.083Z,220
2016-10-08T09:20:35.466Z,224
2016-10-08T09:21:36.443Z,228
2016-10-08T09:22:36.145Z,232
2016-10-08T09:23:35.528Z,256
2016-10-08T09:24:36.568Z,312
2016-10-08T09:25:36.212Z,368
2016-10-08T09:26:36.219Z,328
2016-10-08T09:27:36.261Z,312
2016-10-08T09:28:35.633Z,312
2016-10-08T09:29:35.974Z,312
2016-10-08T09:30:35.669Z,288
2016-10-08T09:31:36.327Z,288
2016-10-08T09:32:36.346Z,284
2016-10-08T09:33:35.741Z,272
2016-10-08T09:34:36.386Z,244
2016-10-08T09:35:36.413Z,228
2016-10-08T09:36:35.798Z,224
2016-10-08T09:37:36.131Z,228
2016-10-08T09:38:35.860Z,232
2016-10-08T09:39:36.486Z,248
2016-10-08T09:40:36.530Z,252
2016-10-08T09:41:36.544Z,244
2016-10-08T09:42:35.922Z,228
2016-10-08T09:43:36.259Z,216
2016-10-08T09:44:36.610Z,212
2016-10-08T09:45:36.298Z,208
2016-10-08T09:46:36.331Z,208
2016-10-08T09:47:36.349Z,204
2016-10-08T09:48:36.672Z,200
2016-10-08T09:49:36.389Z,200
2016-10-08T09:50:37.037Z,192
2016-10-08T09:51:36.444Z,188
2016-10-08T09:52:36.771Z,188
2016-10-08T09:53:36.464Z,184
2016-10-08T09:54:36.486Z,188
2016-10-08T09:55:36.508Z,188
2016-10-08T09:56:36.524Z,188
2016-10-08T09:57:36.545Z,188
2016-10-08T09:58:36.249Z,184
2016-10-08T09:59:36.590Z,180
2016-10-08T10:00:36.294Z,180
2016-10-08T10:01:36.630Z,184
2016-10-08T10:02:36.708Z,180
2016-10-08T10:03:36.358Z,188
2016-10-08T10:04:36.399Z,196
2016-10-08T10:05:36.716Z,208
2016-10-08T10:06:36.418Z,212
2016-10-08T10:07:36.445Z,220
2016-10-08T10:08:36.782Z,220
2016-10-08T10:09:36.810Z,216
2016-10-08T10:10:37.139Z,220
2016-10-08T10:11:36.850Z,220
2016-10-08T10:12:37.183Z,224
2016-10-08T10:13:36.880Z,216
2016-10-08T10:14:51.789Z,204
2016-10-08T10:15:36.609Z,200
2016-10-08T10:16:36.945Z,192
2016-10-08T10:17:36.653Z,180
2016-10-08T10:18:37.324Z,176
2016-10-08T10:19:37.022Z,164
2016-10-08T10:20:37.042Z,156
2016-10-08T10:21:37.052Z,156
2016-10-08T10:22:37.415Z,160
2016-10-08T10:23:37.096Z,152
2016-10-08T10:24:37.432Z,148
2016-10-08T10:25:37.452Z,144
2016-10-08T10:26:37.167Z,148
2016-10-08T10:27:37.494Z,144
2016-10-08T10:28:36.893Z,144
2016-10-08T10:29:37.537Z,140
2016-10-08T10:30:37.241Z,128
2016-10-08T10:31:37.580Z,120
2016-10-08T10:32:37.599Z,116
2016-10-08T10:33:37.302Z,108
2016-10-08T10:34:37.644Z,100
2016-10-08T10:35:37.983Z,88
2016-10-08T10:36:37.376Z,84
2016-10-08T10:37:37.722Z,80
2016-10-08T10:38:37.416Z,80
2016-10-08T10:39:37.754Z,80
2016-10-08T10:40:37.472Z,84
2016-10-08T10:41:37.795Z,88
2016-10-08T10:42:37.808Z,96
2016-10-08T10:43:37.205Z,100
2016-10-08T10:44:37.223Z,108
2016-10-08T10:45:38.345Z,112
2016-10-08T10:46:37.589Z,112
2016-10-08T10:47:37.294Z,112
2016-10-08T10:48:37.938Z,116
2016-10-08T10:49:37.337Z,116
2016-10-08T10:50:37.359Z,120
2016-10-08T10:51:37.374Z,124
2016-10-08T10:52:37.708Z,128
2016-10-08T10:53:37.750Z,132
2016-10-08T10:54:38.063Z,140
2016-10-08T10:55:37.824Z,144
2016-10-08T10:56:38.431Z,140
2016-10-08T10:57:37.819Z,136
2016-10-08T10:58:37.833Z,136
2016-10-08T10:59:37.851Z,140
2016-10-08T11:00:37.886Z,144
2016-10-08T11:01:37.899Z,144
2016-10-08T11:02:37.918Z,152
2016-10-08T11:03:38.308Z,168
2016-10-08T11:04:37.978Z,180
2016-10-08T11:05:37.986Z,188
2016-10-08T11:06:38.009Z,196
2016-10-08T11:07:38.342Z,204
2016-10-08T11:08:38.367Z,232
2016-10-08T11:09:38.065Z,232
2016-10-08T11:10:38.406Z,240
2016-10-08T11:11:37.800Z,252
2016-10-08T11:12:38.758Z,264
2016-10-08T11:13:38.152Z,264
2016-10-08T11:14:38.195Z,268
2016-10-08T11:15:38.198Z,260
2016-10-08T11:16:38.869Z,252
2016-10-08T11:17:38.241Z,240
2016-10-08T11:18:38.266Z,228
2016-10-08T11:19:38.596Z,224
2016-10-08T11:20:38.615Z,220
2016-10-08T11:21:38.006Z,208
2016-10-08T11:22:38.026Z,204
2016-10-08T11:23:38.063Z,192
2016-10-08T11:24:38.389Z,180
2016-10-08T11:25:38.723Z,172
2016-10-08T11:26:38.433Z,168
2016-10-08T11:27:38.452Z,164
2016-10-08T11:28:39.106Z,160
2016-10-08T11:29:38.810Z,160
2016-10-08T11:30:39.184Z,156
2016-10-08T11:31:38.859Z,152
2016-10-08T11:32:38.292Z,148
2016-10-08T11:33:38.292Z,140
2016-10-08T11:34:38.296Z,132
2016-10-08T11:35:38.625Z,124
2016-10-08T11:36:38.957Z,116
2016-10-08T11:37:38.988Z,112
2016-10-08T11:38:38.687Z,104
2016-10-08T11:39:38.704Z,100
2016-10-08T11:40:39.085Z,92
2016-10-08T11:41:38.750Z,92
2016-10-08T11:42:38.766Z,88
2016-10-08T11:43:39.114Z,84
2016-10-08T11:44:39.129Z,88
2016-10-08T11:45:38.828Z,84
2016-10-08T11:46:38.857Z,84
2016-10-08T11:47:38.568Z,80
2016-10-08T11:48:38.898Z,80
2016-10-08T11:49:38.911Z,80
2016-10-08T11:50:39.260Z,76
2016-10-08T11:51:39.270Z,72
2016-10-08T11:52:38.975Z,68
2016-10-08T11:53:39.319Z,64
2016-10-08T11:54:39.342Z,60
2016-10-08T11:55:39.040Z,56
2016-10-08T11:56:39.061Z,52
2016-10-08T11:57:39.096Z,52
2016-10-08T11:58:39.100Z,52
2016-10-08T11:59:39.127Z,48
2016-10-08T12:00:38.829Z,44
2016-10-08T12:01:39.165Z,44
2016-10-08T12:02:39.199Z,44
2016-10-08T12:03:39.204Z,40
2016-10-08T12:04:39.543Z,36
2016-10-08T12:05:39.880Z,36
2016-10-08T12:06:39.586Z,36
2016-10-08T12:07:39.287Z,32
2016-10-08T12:08:39.943Z,32
2016-10-08T12:09:39.348Z,32
2016-10-08T12:10:39.044Z,28
2016-10-08T12:11:39.376Z,28
2016-10-08T12:12:39.096Z,28
2016-10-08T12:13:39.733Z,28
2016-10-08T12:14:39.450Z,24
2016-10-08T12:15:39.775Z,28
2016-10-08T12:16:39.479Z,24
2016-10-08T12:17:39.193Z,24
2016-10-08T12:18:39.204Z,24
2016-10-08T12:19:40.180Z,24
2016-10-08T12:20:39.247Z,24
2016-10-08T12:21:40.217Z,24
2016-10-08T12:22:39.921Z,20
2016-10-08T12:23:39.634Z,24
2016-10-08T12:24:39.649Z,20
2016-10-08T12:25:39.665Z,24
2016-10-08T12:26:39.381Z,24
2016-10-08T12:27:39.706Z,24
2016-10-08T12:28:39.730Z,28
2016-10-08T12:29:40.063Z,28
2016-10-08T12:30:40.092Z,28
2016-10-08T12:31:39.791Z,32
2016-10-08T12:32:40.447Z,32
2016-10-08T12:33:39.833Z,32
2016-10-08T12:34:39.865Z,36
2016-10-08T12:35:39.889Z,36
2016-10-08T12:36:40.224Z,40
2016-10-08T12:37:40.546Z,44
2016-10-08T12:38:40.589Z,44
2016-10-08T12:39:39.646Z,44
2016-10-08T12:40:40.331Z,48
2016-10-08T12:41:40.641Z,44
2016-10-08T12:42:40.024Z,44
2016-10-08T12:43:39.725Z,40
2016-10-08T12:44:40.069Z,40
2016-10-08T12:45:40.406Z,40
2016-10-08T12:46:40.755Z,40
2016-10-08T12:47:40.443Z,40
2016-10-08T12:48:40.487Z,44
2016-10-08T12:49:40.484Z,44
2016-10-08T12:50:40.502Z,44
2016-10-08T12:51:40.209Z,52
2016-10-08T12:52:40.229Z,52
2016-10-08T12:53:40.569Z,56
2016-10-08T12:54:40.590Z,60
2016-10-08T12:55:40.626Z,60
2016-10-08T12:56:40.330Z,64
2016-10-08T12:57:40.655Z,68
2016-10-08T12:58:40.688Z,68
2016-10-08T12:59:40.694Z,72
2016-10-08T13:00:40.400Z,76
2016-10-08T13:01:41.050Z,76
2016-10-08T13:02:40.755Z,76
2016-10-08T13:03:40.157Z,76
2016-10-08T13:04:40.480Z,80
2016-10-08T13:05:40.509Z,84
2016-10-08T13:06:40.221Z,84
2016-10-08T13:07:41.177Z,88
2016-10-08T13:08:40.250Z,92
2016-10-08T13:09:41.225Z,92
2016-10-08T13:10:40.620Z,92
2016-10-08T13:11:40.629Z,92
2016-10-08T13:12:40.653Z,92
2016-10-08T13:13:40.680Z,88
2016-10-08T13:14:40.687Z,84
2016-10-08T13:15:41.038Z,80
2016-10-08T13:16:40.741Z,76
2016-10-08T13:17:41.607Z,68
2016-10-08T13:18:40.780Z,68
2016-10-08T13:19:40.487Z,68
2016-10-08T13:20:41.140Z,72
2016-10-08T13:21:41.158Z,76
2016-10-08T13:22:40.861Z,80
2016-10-08T13:23:41.195Z,80
2016-10-08T13:24:40.902Z,80
2016-10-08T13:25:41.240Z,80
2016-10-08T13:26:41.262Z,84
2016-10-08T13:27:41.022Z,80
2016-10-08T13:28:40.666Z,76
2016-10-08T13:29:41.009Z,76
2016-10-08T13:30:41.027Z,76
2016-10-08T13:31:41.366Z,72
2016-10-08T13:32:41.070Z,76
2016-10-08T13:33:41.722Z,72
2016-10-08T13:34:40.812Z,72
2016-10-08T13:35:41.446Z,72
2016-10-08T13:36:41.161Z,68
2016-10-08T13:37:40.865Z,68
2016-10-08T13:38:41.535Z,68
2016-10-08T13:39:40.905Z,72
2016-10-08T13:40:40.930Z,72
2016-10-08T13:41:41.911Z,76
2016-10-08T13:42:40.968Z,76
2016-10-08T13:43:41.302Z,84
2016-10-08T13:44:41.642Z,84
2016-10-08T13:45:41.978Z,84
2016-10-08T13:46:41.999Z,88
2016-10-08T13:47:41.709Z,88
2016-10-08T13:48:41.740Z,92
2016-10-08T13:49:41.758Z,92
2016-10-08T13:50:41.450Z,92
2016-10-08T13:51:41.795Z,92
2016-10-08T13:52:41.491Z,96
2016-10-08T13:53:41.519Z,92
2016-10-08T13:54:41.550Z,92
2016-10-08T13:55:41.553Z,88
2016-10-08T13:56:42.219Z,84
2016-10-08T13:57:42.235Z,72
2016-10-08T13:58:41.932Z,68
2016-10-08T13:59:41.964Z,64
2016-10-08T14:00:41.349Z,60
2016-10-08T14:01:41.687Z,56
2016-10-08T14:02:42.024Z,56
2016-10-08T14:03:41.410Z,52
2016-10-08T14:04:41.745Z,52
2016-10-08T14:05:41.798Z,56
2016-10-08T14:06:41.790Z,56
2016-10-08T14:07:41.832Z,56
2016-10-08T14:08:41.835Z,60
2016-10-08T14:09:41.562Z,60
2016-10-08T14:10:42.184Z,60
2016-10-08T14:11:41.901Z,60
2016-10-08T14:12:41.915Z,60
2016-10-08T14:13:42.248Z,60
2016-10-08T14:14:41.956Z,60
2016-10-08T14:15:42.322Z,56
2016-10-08T14:16:41.995Z,56
2016-10-08T14:17:42.015Z,56
2016-10-08T14:18:42.040Z,56
2016-10-08T14:19:42.379Z,56
2016-10-08T14:20:42.392Z,56
2016-10-08T14:21:42.097Z,56
2016-10-08T14:22:42.479Z,60